sensor_id;sensor_type;location;lat;lon;timestamp;temperature;humidity
10316;DHT22;5203;48.976;8.306;2024-02-04T00:02:02;7.40;99.90
10316;DHT22;5203;48.976;8.306;2024-02-04T00:04:29;7.30;99.90
10316;DHT22;5203;48.976;8.306;2024-02-04T00:06:58;7.40;99.90
10316;DHT22;5203;48.976;8.306;2024-02-04T00:09:24;7.40;99.90
10316;DHT22;5203;48.976;8.306;2024-02-04T00:11:53;7.50;99.90
10316;DHT22;5203;48.976;8.306;2024-02-04T00:14:21;7.40;99.90
10316;DHT22;5203;48.976;8.306;2024-02-04T00:16:48;7.40;99.90
10316;DHT22;5203;48.976;8.306;2024-02-04T00:19:15;7.50;99.90
10316;DHT22;5203;48.976;8.306;2024-02-04T00:21:41;7.50;99.90
10316;DHT22;5203;48.976;8.306;2024-02-04T00:24:07;7.50;99.90
10316;DHT22;5203;48.976;8.306;2024-02-04T00:26:35;7.50;99.90
10316;DHT22;5203;48.976;8.306;2024-02-04T00:29:01;7.50;99.90
10316;DHT22;5203;48.976;8.306;2024-02-04T00:31:30;7.50;99.90
10316;DHT22;5203;48.976;8.306;2024-02-04T00:33:57;7.50;99.90
10316;DHT22;5203;48.976;8.306;2024-02-04T00:36:29;7.50;99.90
10316;DHT22;5203;48.976;8.306;2024-02-04T00:38:59;7.50;99.90
10316;DHT22;5203;48.976;8.306;2024-02-04T00:41:28;7.50;99.90
10316;DHT22;5203;48.976;8.306;2024-02-04T00:43:56;7.50;99.90
10316;DHT22;5203;48.976;8.306;2024-02-04T00:46:27;7.50;99.90
10316;DHT22;5203;48.976;8.306;2024-02-04T00:49:14;7.50;99.90
10316;DHT22;5203;48.976;8.306;2024-02-04T00:52:00;7.50;99.90
10316;DHT22;5203;48.976;8.306;2024-02-04T00:54:27;7.50;99.90
10316;DHT22;5203;48.976;8.306;2024-02-04T00:56:56;7.40;99.90
10316;DHT22;5203;48.976;8.306;2024-02-04T00:59:25;7.40;99.90
10316;DHT22;5203;48.976;8.306;2024-02-04T01:01:59;7.40;99.90
10316;DHT22;5203;48.976;8.306;2024-02-04T01:04:29;7.40;99.90
10316;DHT22;5203;48.976;8.306;2024-02-04T01:06:56;7.40;99.90
10316;DHT22;5203;48.976;8.306;2024-02-04T01:09:29;7.40;99.90
10316;DHT22;5203;48.976;8.306;2024-02-04T01:11:57;7.40;99.90
10316;DHT22;5203;48.976;8.306;2024-02-04T01:14:27;7.40;99.90
10316;DHT22;5203;48.976;8.306;2024-02-04T01:17:17;7.40;99.90
10316;DHT22;5203;48.976;8.306;2024-02-04T01:19:46;7.40;99.90
10316;DHT22;5203;48.976;8.306;2024-02-04T01:22:27;7.40;99.90
10316;DHT22;5203;48.976;8.306;2024-02-04T01:25:06;7.40;99.90
10316;DHT22;5203;48.976;8.306;2024-02-04T01:27:47;7.40;99.90
10316;DHT22;5203;48.976;8.306;2024-02-04T01:30:35;7.40;99.90
10316;DHT22;5203;48.976;8.306;2024-02-04T01:33:07;7.30;99.90
10316;DHT22;5203;48.976;8.306;2024-02-04T01:35:49;7.30;99.90
10316;DHT22;5203;48.976;8.306;2024-02-04T01:38:18;7.30;99.90
10316;DHT22;5203;48.976;8.306;2024-02-04T01:47:07;7.30;99.90
10316;DHT22;5203;48.976;8.306;2024-02-04T01:49:38;7.30;99.90
10316;DHT22;5203;48.976;8.306;2024-02-04T01:52:09;7.30;99.90
10316;DHT22;5203;48.976;8.306;2024-02-04T01:54:40;7.30;99.90
10316;DHT22;5203;48.976;8.306;2024-02-04T01:57:10;7.20;99.90
10316;DHT22;5203;48.976;8.306;2024-02-04T01:59:39;7.30;99.90
10316;DHT22;5203;48.976;8.306;2024-02-04T02:02:09;7.30;99.90
10316;DHT22;5203;48.976;8.306;2024-02-04T02:04:37;7.30;99.90
10316;DHT22;5203;48.976;8.306;2024-02-04T02:07:19;7.20;99.90
10316;DHT22;5203;48.976;8.306;2024-02-04T02:09:55;7.20;99.90
10316;DHT22;5203;48.976;8.306;2024-02-04T02:12:52;7.20;99.90
10316;DHT22;5203;48.976;8.306;2024-02-04T02:15:35;7.20;99.90
10316;DHT22;5203;48.976;8.306;2024-02-04T02:18:14;7.20;99.90
10316;DHT22;5203;48.976;8.306;2024-02-04T02:24:31;7.20;99.90
10316;DHT22;5203;48.976;8.306;2024-02-04T02:27:01;7.20;99.90
10316;DHT22;5203;48.976;8.306;2024-02-04T02:29:50;7.20;99.90
10316;DHT22;5203;48.976;8.306;2024-02-04T02:32:40;7.20;99.90
10316;DHT22;5203;48.976;8.306;2024-02-04T02:35:12;7.20;99.90
10316;DHT22;5203;48.976;8.306;2024-02-04T02:41:29;7.20;99.90
10316;DHT22;5203;48.976;8.306;2024-02-04T02:44:06;7.20;99.90
10316;DHT22;5203;48.976;8.306;2024-02-04T02:47:12;7.20;99.90
10316;DHT22;5203;48.976;8.306;2024-02-04T02:49:45;7.10;99.90
10316;DHT22;5203;48.976;8.306;2024-02-04T02:52:11;7.10;99.90
10316;DHT22;5203;48.976;8.306;2024-02-04T02:54:37;7.10;99.90
10316;DHT22;5203;48.976;8.306;2024-02-04T02:57:05;7.20;99.90
10316;DHT22;5203;48.976;8.306;2024-02-04T02:59:34;7.10;99.90
10316;DHT22;5203;48.976;8.306;2024-02-04T03:02:15;7.20;99.90
10316;DHT22;5203;48.976;8.306;2024-02-04T03:04:44;7.10;99.90
10316;DHT22;5203;48.976;8.306;2024-02-04T03:07:10;7.10;99.90
10316;DHT22;5203;48.976;8.306;2024-02-04T03:09:35;7.10;99.90
10316;DHT22;5203;48.976;8.306;2024-02-04T03:12:07;7.00;99.90
10316;DHT22;5203;48.976;8.306;2024-02-04T03:14:33;7.10;99.90
10316;DHT22;5203;48.976;8.306;2024-02-04T03:16:59;7.00;99.90
10316;DHT22;5203;48.976;8.306;2024-02-04T03:19:33;7.00;99.90
10316;DHT22;5203;48.976;8.306;2024-02-04T03:21:59;7.00;99.90
10316;DHT22;5203;48.976;8.306;2024-02-04T03:24:27;7.00;99.90
10316;DHT22;5203;48.976;8.306;2024-02-04T03:26:53;6.90;99.90
10316;DHT22;5203;48.976;8.306;2024-02-04T03:29:19;6.90;99.90
10316;DHT22;5203;48.976;8.306;2024-02-04T03:31:45;6.90;99.90
10316;DHT22;5203;48.976;8.306;2024-02-04T03:34:11;6.80;99.90
10316;DHT22;5203;48.976;8.306;2024-02-04T03:36:37;6.80;99.90
10316;DHT22;5203;48.976;8.306;2024-02-04T03:39:04;6.80;99.90
10316;DHT22;5203;48.976;8.306;2024-02-04T03:41:29;6.80;99.90
10316;DHT22;5203;48.976;8.306;2024-02-04T03:43:55;6.80;99.90
10316;DHT22;5203;48.976;8.306;2024-02-04T03:46:24;6.80;99.90
10316;DHT22;5203;48.976;8.306;2024-02-04T03:48:50;6.80;99.90
10316;DHT22;5203;48.976;8.306;2024-02-04T03:51:17;6.80;99.90
10316;DHT22;5203;48.976;8.306;2024-02-04T03:53:44;6.80;99.90
10316;DHT22;5203;48.976;8.306;2024-02-04T03:56:12;6.70;99.90
10316;DHT22;5203;48.976;8.306;2024-02-04T03:58:38;6.70;99.90
10316;DHT22;5203;48.976;8.306;2024-02-04T04:01:10;6.80;99.90
10316;DHT22;5203;48.976;8.306;2024-02-04T04:03:40;6.70;99.90
10316;DHT22;5203;48.976;8.306;2024-02-04T04:06:06;6.70;99.90
10316;DHT22;5203;48.976;8.306;2024-02-04T04:08:32;6.70;99.90
10316;DHT22;5203;48.976;8.306;2024-02-04T04:11:00;6.70;99.90
10316;DHT22;5203;48.976;8.306;2024-02-04T04:13:26;6.60;99.90
10316;DHT22;5203;48.976;8.306;2024-02-04T04:15:52;6.70;99.90
10316;DHT22;5203;48.976;8.306;2024-02-04T04:18:23;6.70;99.90
10316;DHT22;5203;48.976;8.306;2024-02-04T04:20:49;6.60;99.90
10316;DHT22;5203;48.976;8.306;2024-02-04T04:23:15;6.70;99.90
10316;DHT22;5203;48.976;8.306;2024-02-04T04:25:40;6.60;99.90
10316;DHT22;5203;48.976;8.306;2024-02-04T04:28:09;6.60;99.90
10316;DHT22;5203;48.976;8.306;2024-02-04T04:30:34;6.60;99.90
10316;DHT22;5203;48.976;8.306;2024-02-04T04:33:03;6.50;99.90
10316;DHT22;5203;48.976;8.306;2024-02-04T04:35:29;6.60;99.90
10316;DHT22;5203;48.976;8.306;2024-02-04T04:37:55;6.60;99.90
10316;DHT22;5203;48.976;8.306;2024-02-04T04:40:21;6.50;99.90
10316;DHT22;5203;48.976;8.306;2024-02-04T04:42:47;6.60;99.90
10316;DHT22;5203;48.976;8.306;2024-02-04T04:45:12;6.60;99.90
10316;DHT22;5203;48.976;8.306;2024-02-04T04:47:39;6.60;99.90
10316;DHT22;5203;48.976;8.306;2024-02-04T04:50:05;6.60;99.90
10316;DHT22;5203;48.976;8.306;2024-02-04T04:52:32;6.60;99.90
10316;DHT22;5203;48.976;8.306;2024-02-04T04:54:57;6.60;99.90
10316;DHT22;5203;48.976;8.306;2024-02-04T04:57:23;6.60;99.90
10316;DHT22;5203;48.976;8.306;2024-02-04T04:59:49;6.60;99.90
10316;DHT22;5203;48.976;8.306;2024-02-04T05:02:15;6.60;99.90
10316;DHT22;5203;48.976;8.306;2024-02-04T05:04:44;6.60;99.90
10316;DHT22;5203;48.976;8.306;2024-02-04T05:07:13;6.60;99.90
10316;DHT22;5203;48.976;8.306;2024-02-04T05:09:39;6.60;99.90
10316;DHT22;5203;48.976;8.306;2024-02-04T05:12:05;6.60;99.90
10316;DHT22;5203;48.976;8.306;2024-02-04T05:14:31;6.60;99.90
10316;DHT22;5203;48.976;8.306;2024-02-04T05:16:57;6.60;99.90
10316;DHT22;5203;48.976;8.306;2024-02-04T05:19:23;6.60;99.90
10316;DHT22;5203;48.976;8.306;2024-02-04T05:21:51;6.60;99.90
10316;DHT22;5203;48.976;8.306;2024-02-04T05:24:19;6.60;99.90
10316;DHT22;5203;48.976;8.306;2024-02-04T05:26:45;6.70;99.90
10316;DHT22;5203;48.976;8.306;2024-02-04T05:29:13;6.70;99.90
10316;DHT22;5203;48.976;8.306;2024-02-04T05:31:45;6.70;99.90
10316;DHT22;5203;48.976;8.306;2024-02-04T05:34:11;6.70;99.90
10316;DHT22;5203;48.976;8.306;2024-02-04T05:36:37;6.70;99.90
10316;DHT22;5203;48.976;8.306;2024-02-04T05:39:19;6.70;99.90
10316;DHT22;5203;48.976;8.306;2024-02-04T05:41:44;6.70;99.90
10316;DHT22;5203;48.976;8.306;2024-02-04T05:44:10;6.70;99.90
10316;DHT22;5203;48.976;8.306;2024-02-04T05:46:36;6.80;99.90
10316;DHT22;5203;48.976;8.306;2024-02-04T05:49:08;6.70;99.90
10316;DHT22;5203;48.976;8.306;2024-02-04T05:51:43;6.80;99.90
10316;DHT22;5203;48.976;8.306;2024-02-04T05:54:09;6.70;99.90
10316;DHT22;5203;48.976;8.306;2024-02-04T05:56:35;6.70;99.90
10316;DHT22;5203;48.976;8.306;2024-02-04T05:59:00;6.80;99.90
10316;DHT22;5203;48.976;8.306;2024-02-04T06:01:26;6.80;99.90
10316;DHT22;5203;48.976;8.306;2024-02-04T06:03:52;6.70;99.90
10316;DHT22;5203;48.976;8.306;2024-02-04T06:06:18;6.80;99.90
10316;DHT22;5203;48.976;8.306;2024-02-04T06:08:46;6.80;99.90
10316;DHT22;5203;48.976;8.306;2024-02-04T06:11:12;6.80;99.90
10316;DHT22;5203;48.976;8.306;2024-02-04T06:13:40;6.80;99.90
10316;DHT22;5203;48.976;8.306;2024-02-04T06:16:06;6.80;99.90
10316;DHT22;5203;48.976;8.306;2024-02-04T06:18:32;6.80;99.90
10316;DHT22;5203;48.976;8.306;2024-02-04T06:21:00;6.80;99.90
10316;DHT22;5203;48.976;8.306;2024-02-04T06:23:26;6.80;99.90
10316;DHT22;5203;48.976;8.306;2024-02-04T06:25:51;6.80;99.90
10316;DHT22;5203;48.976;8.306;2024-02-04T06:28:17;6.80;99.90
10316;DHT22;5203;48.976;8.306;2024-02-04T06:30:42;6.80;99.90
10316;DHT22;5203;48.976;8.306;2024-02-04T06:33:08;6.80;99.90
10316;DHT22;5203;48.976;8.306;2024-02-04T06:35:34;6.80;99.90
10316;DHT22;5203;48.976;8.306;2024-02-04T06:38:00;6.80;99.90
10316;DHT22;5203;48.976;8.306;2024-02-04T06:40:26;6.80;99.90
10316;DHT22;5203;48.976;8.306;2024-02-04T06:42:52;6.80;99.90
10316;DHT22;5203;48.976;8.306;2024-02-04T06:45:17;6.80;99.90
10316;DHT22;5203;48.976;8.306;2024-02-04T06:47:44;6.80;99.90
10316;DHT22;5203;48.976;8.306;2024-02-04T06:50:10;6.80;99.90
10316;DHT22;5203;48.976;8.306;2024-02-04T06:52:43;6.80;99.90
10316;DHT22;5203;48.976;8.306;2024-02-04T06:55:09;6.80;99.90
10316;DHT22;5203;48.976;8.306;2024-02-04T06:57:35;6.80;99.90
10316;DHT22;5203;48.976;8.306;2024-02-04T07:00:01;6.80;99.90
10316;DHT22;5203;48.976;8.306;2024-02-04T07:02:27;6.80;99.90
10316;DHT22;5203;48.976;8.306;2024-02-04T07:04:53;6.80;99.90
10316;DHT22;5203;48.976;8.306;2024-02-04T07:07:27;6.80;99.90
10316;DHT22;5203;48.976;8.306;2024-02-04T07:09:56;6.80;99.90
10316;DHT22;5203;48.976;8.306;2024-02-04T07:12:25;6.80;99.90
10316;DHT22;5203;48.976;8.306;2024-02-04T07:14:50;6.90;99.90
10316;DHT22;5203;48.976;8.306;2024-02-04T07:17:17;6.80;99.90
10316;DHT22;5203;48.976;8.306;2024-02-04T07:19:43;6.90;99.90
10316;DHT22;5203;48.976;8.306;2024-02-04T07:22:09;6.90;99.90
10316;DHT22;5203;48.976;8.306;2024-02-04T07:24:34;6.90;99.90
10316;DHT22;5203;48.976;8.306;2024-02-04T07:27:00;6.90;99.90
10316;DHT22;5203;48.976;8.306;2024-02-04T07:29:26;6.90;99.90
10316;DHT22;5203;48.976;8.306;2024-02-04T07:31:52;6.90;99.90
10316;DHT22;5203;48.976;8.306;2024-02-04T07:34:32;6.90;99.90
10316;DHT22;5203;48.976;8.306;2024-02-04T07:37:15;6.90;99.90
10316;DHT22;5203;48.976;8.306;2024-02-04T07:39:46;7.00;99.90
10316;DHT22;5203;48.976;8.306;2024-02-04T07:42:25;6.90;99.90
10316;DHT22;5203;48.976;8.306;2024-02-04T07:47:43;7.00;99.90
10316;DHT22;5203;48.976;8.306;2024-02-04T07:50:18;6.90;99.90
10316;DHT22;5203;48.976;8.306;2024-02-04T07:52:48;6.90;99.90
10316;DHT22;5203;48.976;8.306;2024-02-04T07:55:17;6.90;99.90
10316;DHT22;5203;48.976;8.306;2024-02-04T07:57:49;6.90;99.90
10316;DHT22;5203;48.976;8.306;2024-02-04T08:00:17;7.00;99.90
10316;DHT22;5203;48.976;8.306;2024-02-04T08:02:47;7.00;99.90
10316;DHT22;5203;48.976;8.306;2024-02-04T08:05:13;7.00;99.90
10316;DHT22;5203;48.976;8.306;2024-02-04T08:07:41;6.90;99.90
10316;DHT22;5203;48.976;8.306;2024-02-04T08:10:23;6.90;99.90
10316;DHT22;5203;48.976;8.306;2024-02-04T08:12:50;6.90;99.90
10316;DHT22;5203;48.976;8.306;2024-02-04T08:15:22;7.00;99.90
10316;DHT22;5203;48.976;8.306;2024-02-04T08:17:52;6.90;99.90
10316;DHT22;5203;48.976;8.306;2024-02-04T08:20:23;7.00;99.90
10316;DHT22;5203;48.976;8.306;2024-02-04T08:23:17;6.90;99.90
10316;DHT22;5203;48.976;8.306;2024-02-04T08:25:47;7.00;99.90
10316;DHT22;5203;48.976;8.306;2024-02-04T08:28:39;7.00;99.90
10316;DHT22;5203;48.976;8.306;2024-02-04T08:31:14;7.00;99.90
10316;DHT22;5203;48.976;8.306;2024-02-04T08:33:59;7.00;99.90
10316;DHT22;5203;48.976;8.306;2024-02-04T08:36:40;7.00;99.90
10316;DHT22;5203;48.976;8.306;2024-02-04T08:39:28;7.00;99.90
10316;DHT22;5203;48.976;8.306;2024-02-04T08:42:04;7.10;99.90
10316;DHT22;5203;48.976;8.306;2024-02-04T08:44:51;7.10;99.90
10316;DHT22;5203;48.976;8.306;2024-02-04T08:47:21;7.10;99.90
10316;DHT22;5203;48.976;8.306;2024-02-04T08:50:19;7.20;99.90
10316;DHT22;5203;48.976;8.306;2024-02-04T08:56:20;7.20;99.90
10316;DHT22;5203;48.976;8.306;2024-02-04T08:59:02;7.20;99.90
10316;DHT22;5203;48.976;8.306;2024-02-04T09:01:28;7.20;99.90
10316;DHT22;5203;48.976;8.306;2024-02-04T09:06:36;7.30;99.90
10316;DHT22;5203;48.976;8.306;2024-02-04T09:09:07;7.20;99.90
10316;DHT22;5203;48.976;8.306;2024-02-04T09:11:40;7.30;99.90
10316;DHT22;5203;48.976;8.306;2024-02-04T09:14:41;7.30;99.90
10316;DHT22;5203;48.976;8.306;2024-02-04T09:20:27;7.30;99.90
10316;DHT22;5203;48.976;8.306;2024-02-04T09:22:54;7.30;99.90
10316;DHT22;5203;48.976;8.306;2024-02-04T09:25:24;7.30;99.90
10316;DHT22;5203;48.976;8.306;2024-02-04T09:28:20;7.30;99.90
10316;DHT22;5203;48.976;8.306;2024-02-04T09:30:48;7.40;99.90
10316;DHT22;5203;48.976;8.306;2024-02-04T09:33:36;7.40;99.90
10316;DHT22;5203;48.976;8.306;2024-02-04T09:36:13;7.40;99.90
10316;DHT22;5203;48.976;8.306;2024-02-04T09:38:48;7.40;99.90
10316;DHT22;5203;48.976;8.306;2024-02-04T09:41:20;7.40;99.90
10316;DHT22;5203;48.976;8.306;2024-02-04T09:46:32;7.40;99.90
10316;DHT22;5203;48.976;8.306;2024-02-04T09:49:02;7.40;99.90
10316;DHT22;5203;48.976;8.306;2024-02-04T09:51:30;7.50;99.90
10316;DHT22;5203;48.976;8.306;2024-02-04T09:54:04;7.70;99.90
10316;DHT22;5203;48.976;8.306;2024-02-04T09:56:33;7.70;99.90
10316;DHT22;5203;48.976;8.306;2024-02-04T09:59:01;7.70;99.90
10316;DHT22;5203;48.976;8.306;2024-02-04T10:01:27;7.60;99.90
10316;DHT22;5203;48.976;8.306;2024-02-04T10:03:53;7.60;99.90
10316;DHT22;5203;48.976;8.306;2024-02-04T10:06:19;7.60;99.90
10316;DHT22;5203;48.976;8.306;2024-02-04T10:08:46;7.70;99.90
10316;DHT22;5203;48.976;8.306;2024-02-04T10:11:14;7.70;99.90
10316;DHT22;5203;48.976;8.306;2024-02-04T10:13:48;7.70;99.90
10316;DHT22;5203;48.976;8.306;2024-02-04T10:16:14;7.70;99.90
10316;DHT22;5203;48.976;8.306;2024-02-04T10:18:48;7.70;99.90
10316;DHT22;5203;48.976;8.306;2024-02-04T10:21:18;7.70;99.90
10316;DHT22;5203;48.976;8.306;2024-02-04T10:23:46;7.70;99.90
10316;DHT22;5203;48.976;8.306;2024-02-04T10:26:16;7.70;99.90
10316;DHT22;5203;48.976;8.306;2024-02-04T10:28:45;7.70;99.90
10316;DHT22;5203;48.976;8.306;2024-02-04T10:31:12;7.70;99.90
10316;DHT22;5203;48.976;8.306;2024-02-04T10:33:38;7.80;99.90
10316;DHT22;5203;48.976;8.306;2024-02-04T10:36:05;7.80;99.90
10316;DHT22;5203;48.976;8.306;2024-02-04T10:38:35;7.90;99.90
10316;DHT22;5203;48.976;8.306;2024-02-04T10:41:01;8.00;99.90
10316;DHT22;5203;48.976;8.306;2024-02-04T10:43:37;8.10;99.90
10316;DHT22;5203;48.976;8.306;2024-02-04T10:46:13;8.20;99.90
10316;DHT22;5203;48.976;8.306;2024-02-04T10:48:38;8.20;99.90
10316;DHT22;5203;48.976;8.306;2024-02-04T10:51:15;8.30;99.90
10316;DHT22;5203;48.976;8.306;2024-02-04T10:53:44;8.30;99.70
10316;DHT22;5203;48.976;8.306;2024-02-04T10:56:32;8.40;99.00
10316;DHT22;5203;48.976;8.306;2024-02-04T10:58:58;8.40;99.40
10316;DHT22;5203;48.976;8.306;2024-02-04T11:01:26;8.40;98.60
10316;DHT22;5203;48.976;8.306;2024-02-04T11:03:52;8.50;98.60
10316;DHT22;5203;48.976;8.306;2024-02-04T11:06:20;8.60;98.00
10316;DHT22;5203;48.976;8.306;2024-02-04T11:08:46;8.70;98.20
10316;DHT22;5203;48.976;8.306;2024-02-04T11:11:12;8.80;98.40
10316;DHT22;5203;48.976;8.306;2024-02-04T11:13:40;8.80;97.90
10316;DHT22;5203;48.976;8.306;2024-02-04T11:16:25;8.80;98.30
10316;DHT22;5203;48.976;8.306;2024-02-04T11:21:50;8.80;98.00
10316;DHT22;5203;48.976;8.306;2024-02-04T11:27:15;8.90;98.30
10316;DHT22;5203;48.976;8.306;2024-02-04T11:29:41;9.00;97.10
10316;DHT22;5203;48.976;8.306;2024-02-04T11:32:07;9.10;97.00
10316;DHT22;5203;48.976;8.306;2024-02-04T11:34:33;9.10;97.40
10316;DHT22;5203;48.976;8.306;2024-02-04T11:37:00;9.10;96.70
10316;DHT22;5203;48.976;8.306;2024-02-04T11:39:26;9.10;96.10
10316;DHT22;5203;48.976;8.306;2024-02-04T11:41:52;9.10;97.00
10316;DHT22;5203;48.976;8.306;2024-02-04T11:44:24;9.20;97.00
10316;DHT22;5203;48.976;8.306;2024-02-04T11:46:50;9.20;96.50
10316;DHT22;5203;48.976;8.306;2024-02-04T11:49:18;9.20;95.90
10316;DHT22;5203;48.976;8.306;2024-02-04T11:51:47;9.20;97.00
10316;DHT22;5203;48.976;8.306;2024-02-04T11:54:17;9.30;97.10
10316;DHT22;5203;48.976;8.306;2024-02-04T11:56:45;9.30;96.60
10316;DHT22;5203;48.976;8.306;2024-02-04T11:59:19;9.40;97.00
10316;DHT22;5203;48.976;8.306;2024-02-04T12:01:46;9.40;96.00
10316;DHT22;5203;48.976;8.306;2024-02-04T12:04:18;9.40;95.60
10316;DHT22;5203;48.976;8.306;2024-02-04T12:06:44;9.30;96.20
10316;DHT22;5203;48.976;8.306;2024-02-04T12:09:09;9.40;96.30
10316;DHT22;5203;48.976;8.306;2024-02-04T12:11:36;9.30;96.40
10316;DHT22;5203;48.976;8.306;2024-02-04T12:14:07;9.20;96.30
10316;DHT22;5203;48.976;8.306;2024-02-04T12:16:34;9.30;96.60
10316;DHT22;5203;48.976;8.306;2024-02-04T12:19:04;9.30;97.90
10316;DHT22;5203;48.976;8.306;2024-02-04T12:21:30;9.30;97.20
10316;DHT22;5203;48.976;8.306;2024-02-04T12:23:56;9.30;97.80
10316;DHT22;5203;48.976;8.306;2024-02-04T12:26:22;9.20;97.20
10316;DHT22;5203;48.976;8.306;2024-02-04T12:28:49;9.10;99.20
10316;DHT22;5203;48.976;8.306;2024-02-04T12:31:24;9.10;98.80
10316;DHT22;5203;48.976;8.306;2024-02-04T12:33:57;9.10;97.80
10316;DHT22;5203;48.976;8.306;2024-02-04T12:36:25;9.10;97.70
10316;DHT22;5203;48.976;8.306;2024-02-04T12:38:55;9.20;99.10
10316;DHT22;5203;48.976;8.306;2024-02-04T12:41:25;9.20;98.00
10316;DHT22;5203;48.976;8.306;2024-02-04T12:43:53;9.10;98.50
10316;DHT22;5203;48.976;8.306;2024-02-04T12:46:19;9.20;98.10
10316;DHT22;5203;48.976;8.306;2024-02-04T12:48:50;9.20;98.40
10316;DHT22;5203;48.976;8.306;2024-02-04T12:51:31;9.20;98.30
10316;DHT22;5203;48.976;8.306;2024-02-04T12:54:06;9.20;98.40
10316;DHT22;5203;48.976;8.306;2024-02-04T12:56:53;9.20;98.30
10316;DHT22;5203;48.976;8.306;2024-02-04T12:59:35;9.30;97.70
10316;DHT22;5203;48.976;8.306;2024-02-04T13:02:05;9.40;98.10
10316;DHT22;5203;48.976;8.306;2024-02-04T13:04:35;9.40;98.00
10316;DHT22;5203;48.976;8.306;2024-02-04T13:07:01;9.50;97.60
10316;DHT22;5203;48.976;8.306;2024-02-04T13:09:31;9.50;97.40
10316;DHT22;5203;48.976;8.306;2024-02-04T13:12:04;9.50;97.20
10316;DHT22;5203;48.976;8.306;2024-02-04T13:14:30;9.50;97.40
10316;DHT22;5203;48.976;8.306;2024-02-04T13:16:57;9.60;96.90
10316;DHT22;5203;48.976;8.306;2024-02-04T13:19:23;9.60;97.50
10316;DHT22;5203;48.976;8.306;2024-02-04T13:21:48;9.60;96.50
10316;DHT22;5203;48.976;8.306;2024-02-04T13:24:14;9.70;96.50
10316;DHT22;5203;48.976;8.306;2024-02-04T13:26:40;9.60;96.20
10316;DHT22;5203;48.976;8.306;2024-02-04T13:29:09;9.70;96.50
10316;DHT22;5203;48.976;8.306;2024-02-04T13:31:34;9.70;97.00
10316;DHT22;5203;48.976;8.306;2024-02-04T13:34:03;9.70;97.80
10316;DHT22;5203;48.976;8.306;2024-02-04T13:36:30;9.80;96.70
10316;DHT22;5203;48.976;8.306;2024-02-04T13:38:55;9.70;97.00
10316;DHT22;5203;48.976;8.306;2024-02-04T13:41:21;9.80;96.50
10316;DHT22;5203;48.976;8.306;2024-02-04T13:43:47;9.70;97.30
10316;DHT22;5203;48.976;8.306;2024-02-04T13:46:16;9.70;96.90
10316;DHT22;5203;48.976;8.306;2024-02-04T13:48:41;9.70;97.30
10316;DHT22;5203;48.976;8.306;2024-02-04T13:51:07;9.60;98.30
10316;DHT22;5203;48.976;8.306;2024-02-04T13:53:33;9.60;99.00
10316;DHT22;5203;48.976;8.306;2024-02-04T13:56:01;9.60;99.20
10316;DHT22;5203;48.976;8.306;2024-02-04T13:58:28;9.50;99.20
10316;DHT22;5203;48.976;8.306;2024-02-04T14:00:54;9.50;99.40
10316;DHT22;5203;48.976;8.306;2024-02-04T14:03:20;9.40;99.10
10316;DHT22;5203;48.976;8.306;2024-02-04T14:05:46;9.40;99.40
10316;DHT22;5203;48.976;8.306;2024-02-04T14:08:11;9.40;99.60
10316;DHT22;5203;48.976;8.306;2024-02-04T14:10:37;9.40;99.90
10316;DHT22;5203;48.976;8.306;2024-02-04T14:13:06;9.40;99.90
10316;DHT22;5203;48.976;8.306;2024-02-04T14:15:34;9.40;99.90
10316;DHT22;5203;48.976;8.306;2024-02-04T14:18:00;9.40;99.90
10316;DHT22;5203;48.976;8.306;2024-02-04T14:20:28;9.40;99.90
10316;DHT22;5203;48.976;8.306;2024-02-04T14:22:54;9.30;99.90
10316;DHT22;5203;48.976;8.306;2024-02-04T14:25:26;9.40;99.90
10316;DHT22;5203;48.976;8.306;2024-02-04T14:28:00;9.30;99.90
10316;DHT22;5203;48.976;8.306;2024-02-04T14:30:27;9.40;99.90
10316;DHT22;5203;48.976;8.306;2024-02-04T14:32:53;9.30;99.90
10316;DHT22;5203;48.976;8.306;2024-02-04T14:35:21;9.40;99.90
10316;DHT22;5203;48.976;8.306;2024-02-04T14:37:56;9.40;99.90
10316;DHT22;5203;48.976;8.306;2024-02-04T14:40:25;9.30;99.90
10316;DHT22;5203;48.976;8.306;2024-02-04T14:42:51;9.40;99.90
10316;DHT22;5203;48.976;8.306;2024-02-04T14:45:17;9.40;99.90
10316;DHT22;5203;48.976;8.306;2024-02-04T14:47:54;9.40;99.90
10316;DHT22;5203;48.976;8.306;2024-02-04T14:50:26;9.40;99.90
10316;DHT22;5203;48.976;8.306;2024-02-04T14:53:01;9.40;99.90
10316;DHT22;5203;48.976;8.306;2024-02-04T14:55:34;9.40;99.90
10316;DHT22;5203;48.976;8.306;2024-02-04T14:58:26;9.40;99.90
10316;DHT22;5203;48.976;8.306;2024-02-04T15:00:53;9.40;99.90
10316;DHT22;5203;48.976;8.306;2024-02-04T15:03:19;9.40;99.90
10316;DHT22;5203;48.976;8.306;2024-02-04T15:05:52;9.30;99.90
10316;DHT22;5203;48.976;8.306;2024-02-04T15:08:25;9.30;99.90
10316;DHT22;5203;48.976;8.306;2024-02-04T15:11:26;9.40;99.90
10316;DHT22;5203;48.976;8.306;2024-02-04T15:17:38;9.30;99.90
10316;DHT22;5203;48.976;8.306;2024-02-04T15:23:25;9.30;99.90
10316;DHT22;5203;48.976;8.306;2024-02-04T15:25:58;9.30;99.90
10316;DHT22;5203;48.976;8.306;2024-02-04T15:28:24;9.30;99.90
10316;DHT22;5203;48.976;8.306;2024-02-04T15:30:51;9.30;99.90
10316;DHT22;5203;48.976;8.306;2024-02-04T15:33:24;9.30;99.90
10316;DHT22;5203;48.976;8.306;2024-02-04T15:35:50;9.30;99.90
10316;DHT22;5203;48.976;8.306;2024-02-04T15:38:16;9.20;99.90
10316;DHT22;5203;48.976;8.306;2024-02-04T15:40:42;9.30;99.90
10316;DHT22;5203;48.976;8.306;2024-02-04T15:43:11;9.30;99.90
10316;DHT22;5203;48.976;8.306;2024-02-04T15:45:44;9.20;99.90
10316;DHT22;5203;48.976;8.306;2024-02-04T15:48:32;9.20;99.90
10316;DHT22;5203;48.976;8.306;2024-02-04T15:51:19;9.20;99.90
10316;DHT22;5203;48.976;8.306;2024-02-04T15:53:46;9.20;99.90
10316;DHT22;5203;48.976;8.306;2024-02-04T15:56:19;9.20;99.90
10316;DHT22;5203;48.976;8.306;2024-02-04T15:59:04;9.20;99.90
10316;DHT22;5203;48.976;8.306;2024-02-04T16:01:35;9.20;99.90
10316;DHT22;5203;48.976;8.306;2024-02-04T16:04:07;9.20;99.90
10316;DHT22;5203;48.976;8.306;2024-02-04T16:06:41;9.20;99.90
10316;DHT22;5203;48.976;8.306;2024-02-04T16:09:11;9.20;99.90
10316;DHT22;5203;48.976;8.306;2024-02-04T16:12:12;9.20;99.90
10316;DHT22;5203;48.976;8.306;2024-02-04T16:14:44;9.20;99.90
10316;DHT22;5203;48.976;8.306;2024-02-04T16:17:19;9.10;99.90
10316;DHT22;5203;48.976;8.306;2024-02-04T16:19:52;9.10;99.90
10316;DHT22;5203;48.976;8.306;2024-02-04T16:22:22;9.20;99.90
10316;DHT22;5203;48.976;8.306;2024-02-04T16:24:51;9.20;99.90
10316;DHT22;5203;48.976;8.306;2024-02-04T16:27:22;9.10;99.90
10316;DHT22;5203;48.976;8.306;2024-02-04T16:29:48;9.20;99.90
10316;DHT22;5203;48.976;8.306;2024-02-04T16:32:24;9.10;99.90
10316;DHT22;5203;48.976;8.306;2024-02-04T16:34:50;9.10;99.90
10316;DHT22;5203;48.976;8.306;2024-02-04T16:37:24;9.10;99.90
10316;DHT22;5203;48.976;8.306;2024-02-04T16:39:53;9.10;99.90
10316;DHT22;5203;48.976;8.306;2024-02-04T16:42:19;9.10;99.90
10316;DHT22;5203;48.976;8.306;2024-02-04T16:44:46;9.10;99.90
10316;DHT22;5203;48.976;8.306;2024-02-04T16:47:21;9.10;99.90
10316;DHT22;5203;48.976;8.306;2024-02-04T16:49:47;9.10;99.90
10316;DHT22;5203;48.976;8.306;2024-02-04T16:52:16;9.00;99.90
10316;DHT22;5203;48.976;8.306;2024-02-04T16:54:42;9.00;99.90
10316;DHT22;5203;48.976;8.306;2024-02-04T16:57:12;9.00;99.90
10316;DHT22;5203;48.976;8.306;2024-02-04T16:59:39;9.00;99.90
10316;DHT22;5203;48.976;8.306;2024-02-04T17:02:12;9.10;99.90
10316;DHT22;5203;48.976;8.306;2024-02-04T17:04:40;9.00;99.90